createdAt,value
2018-08-12T00:00:26.963Z,3.00
2018-08-12T00:03:30.731Z,3.10
2018-08-12T00:06:34.453Z,3.03
2018-08-12T00:09:38.247Z,3.10
2018-08-12T00:12:42.758Z,3.10
2018-08-12T00:15:46.498Z,2.87
2018-08-12T00:18:50.336Z,3.23
2018-08-12T00:21:54.007Z,3.10
2018-08-12T00:24:57.971Z,3.53
2018-08-12T00:28:01.647Z,2.83
2018-08-12T00:31:05.462Z,3.00
2018-08-12T00:34:09.309Z,3.47
2018-08-12T00:37:12.986Z,3.00
2018-08-12T00:40:17.583Z,3.50
2018-08-12T00:43:21.238Z,3.30
2018-08-12T00:46:24.871Z,3.40
2018-08-12T00:49:28.641Z,3.50
2018-08-12T00:52:33.034Z,3.50
2018-08-12T00:55:36.643Z,3.13
2018-08-12T00:58:40.262Z,3.03
2018-08-12T01:01:43.862Z,3.10
2018-08-12T01:04:47.537Z,3.40
2018-08-12T01:07:51.598Z,2.80
2018-08-12T01:10:55.228Z,3.50
2018-08-12T01:13:59.063Z,3.27
2018-08-12T01:17:02.693Z,3.60
2018-08-12T01:20:07.603Z,3.33
2018-08-12T01:23:11.258Z,4.50
2018-08-12T01:26:15.038Z,2.90
2018-08-12T01:29:18.747Z,2.93
2018-08-12T01:32:22.547Z,3.10
2018-08-12T01:35:26.228Z,2.90
2018-08-12T01:38:29.913Z,3.17
2018-08-12T01:41:33.536Z,2.90
2018-08-12T01:44:37.153Z,2.60
2018-08-12T01:47:40.927Z,2.60
2018-08-12T01:50:44.677Z,2.87
2018-08-12T01:53:48.369Z,3.20
2018-08-12T01:56:52.008Z,3.30
2018-08-12T01:59:55.658Z,3.17
2018-08-12T02:02:59.331Z,2.80
2018-08-12T02:06:03.014Z,3.20
2018-08-12T02:09:08.380Z,3.00
2018-08-12T02:12:12.063Z,3.40
2018-08-12T02:15:15.802Z,2.83
2018-08-12T02:18:19.446Z,3.10
2018-08-12T02:21:23.096Z,3.07
2018-08-12T02:24:26.997Z,3.23
2018-08-12T02:27:30.622Z,2.73
2018-08-12T02:30:34.231Z,3.10
2018-08-12T02:33:37.827Z,3.23
2018-08-12T02:36:41.374Z,3.17
2018-08-12T02:39:45.033Z,3.30
2018-08-12T02:42:48.712Z,3.07
2018-08-12T02:45:52.318Z,3.10
2018-08-12T02:48:56.032Z,2.90
2018-08-12T02:51:59.710Z,3.20
2018-08-12T02:55:03.477Z,2.90
2018-08-12T02:58:07.107Z,3.17
2018-08-12T03:01:10.889Z,3.20
2018-08-12T03:04:14.491Z,3.33
2018-08-12T03:07:18.077Z,3.10
2018-08-12T03:10:21.708Z,3.43
2018-08-12T03:13:25.483Z,3.30
2018-08-12T03:16:29.105Z,3.00
2018-08-12T03:19:32.759Z,3.17
2018-08-12T03:22:36.701Z,3.40
2018-08-12T03:25:40.440Z,3.77
2018-08-12T03:28:44.040Z,3.50
2018-08-12T03:31:47.607Z,3.43
2018-08-12T03:34:51.233Z,3.40
2018-08-12T03:37:54.888Z,3.60
2018-08-12T03:40:58.695Z,3.20
2018-08-12T03:44:02.299Z,3.60
2018-08-12T03:47:06.073Z,3.43
2018-08-12T03:50:10.916Z,3.50
2018-08-12T03:53:14.624Z,3.23
2018-08-12T03:56:18.300Z,3.40
2018-08-12T03:59:21.935Z,3.30
2018-08-12T04:02:25.582Z,4.00
2018-08-12T04:05:29.155Z,3.53
2018-08-12T04:08:32.970Z,4.37
2018-08-12T04:11:36.681Z,4.27
2018-08-12T04:14:40.547Z,4.00
2018-08-12T04:17:44.176Z,4.40
2018-08-12T04:20:47.739Z,4.47
2018-08-12T04:23:51.615Z,4.03
2018-08-12T04:26:55.245Z,4.10
2018-08-12T04:29:59.138Z,3.60
2018-08-12T04:33:02.707Z,3.73
2018-08-12T04:36:06.419Z,4.30
2018-08-12T04:39:16.699Z,3.93
2018-08-12T04:42:20.385Z,3.93
2018-08-12T04:45:23.983Z,3.90
2018-08-12T04:48:27.725Z,4.20
2018-08-12T04:51:31.513Z,3.70
2018-08-12T04:54:35.116Z,3.40
2018-08-12T04:57:38.924Z,3.50
2018-08-12T05:00:42.678Z,3.90
2018-08-12T05:03:46.379Z,3.30
2018-08-12T05:06:50.189Z,3.40
2018-08-12T05:09:53.748Z,3.50
2018-08-12T05:12:57.533Z,3.33
2018-08-12T05:16:01.136Z,3.50
2018-08-12T05:19:04.879Z,4.00
2018-08-12T05:22:08.594Z,3.70
2018-08-12T05:25:12.318Z,3.60
2018-08-12T05:28:16.096Z,3.57
2018-08-12T05:31:19.716Z,3.27
2018-08-12T05:34:23.375Z,3.33
2018-08-12T05:37:27.243Z,3.70
2018-08-12T05:40:31.019Z,3.40
2018-08-12T05:43:34.715Z,3.27
2018-08-12T05:46:38.364Z,3.20
2018-08-12T05:49:42.055Z,4.10
2018-08-12T05:52:45.709Z,3.77
2018-08-12T05:55:50.265Z,4.07
2018-08-12T05:58:53.874Z,4.00
2018-08-12T06:01:57.452Z,3.70
2018-08-12T06:05:01.141Z,3.83
2018-08-12T06:08:04.771Z,3.90
2018-08-12T06:11:08.435Z,3.90
2018-08-12T06:14:12.166Z,3.90
2018-08-12T06:17:15.932Z,3.60
2018-08-12T06:20:19.605Z,4.50
2018-08-12T06:23:23.339Z,4.10
2018-08-12T06:26:27.185Z,3.47
2018-08-12T06:29:30.795Z,4.07
2018-08-12T06:32:34.580Z,4.00
2018-08-12T06:35:38.353Z,4.57
2018-08-12T06:38:42.085Z,4.20
2018-08-12T06:41:45.690Z,3.90
2018-08-12T06:44:49.295Z,4.30
2018-08-12T06:47:52.967Z,4.13
2018-08-12T06:50:56.611Z,4.80
2018-08-12T06:54:00.331Z,4.70
2018-08-12T06:57:04.076Z,5.10
2018-08-12T07:00:09.541Z,4.67
2018-08-12T07:03:13.171Z,4.83
2018-08-12T07:06:16.877Z,5.10
2018-08-12T07:09:20.648Z,5.47
2018-08-12T07:12:24.308Z,5.07
2018-08-12T07:15:28.021Z,5.07
2018-08-12T07:18:31.795Z,5.27
2018-08-12T07:21:35.382Z,5.10
2018-08-12T07:24:39.356Z,4.80
2018-08-12T07:27:43.641Z,5.20
2018-08-12T07:30:47.237Z,4.90
2018-08-12T07:33:50.896Z,5.20
2018-08-12T07:36:54.501Z,5.60
2018-08-12T07:39:58.179Z,5.07
2018-08-12T07:43:01.841Z,5.13
2018-08-12T07:46:05.593Z,4.97
2018-08-12T07:49:09.250Z,5.20
2018-08-12T07:55:11.223Z,5.40
2018-08-12T07:58:14.786Z,5.10
2018-08-12T08:01:18.521Z,5.10
2018-08-12T08:04:22.131Z,4.77
2018-08-12T08:07:25.768Z,5.07
2018-08-12T08:10:29.576Z,5.20
2018-08-12T08:13:33.308Z,5.37
2018-08-12T08:16:36.941Z,4.83
2018-08-12T08:19:40.732Z,4.60
2018-08-12T08:22:44.787Z,4.73
2018-08-12T08:25:48.672Z,5.63
2018-08-12T08:28:52.431Z,4.77
2018-08-12T08:31:56.400Z,4.93
2018-08-12T08:34:59.841Z,4.37
2018-08-12T08:38:03.726Z,4.73
2018-08-12T08:41:07.418Z,4.60
2018-08-12T08:44:11.049Z,5.37
2018-08-12T08:47:14.734Z,4.20
2018-08-12T08:50:19.662Z,4.57
2018-08-12T08:53:23.301Z,5.00
2018-08-12T08:56:26.943Z,4.53
2018-08-12T08:59:30.694Z,4.03
2018-08-12T09:02:34.384Z,4.43
2018-08-12T09:05:38.111Z,4.40
2018-08-12T09:08:42.187Z,4.20
2018-08-12T09:11:45.728Z,4.90
2018-08-12T09:14:49.348Z,4.40
2018-08-12T09:17:53.011Z,4.60
2018-08-12T09:20:56.808Z,4.27
2018-08-12T09:24:00.982Z,4.17
2018-08-12T09:27:04.690Z,4.23
2018-08-12T09:30:10.809Z,4.00
2018-08-12T09:33:14.689Z,3.50
2018-08-12T09:36:18.491Z,3.50
2018-08-12T09:39:22.212Z,3.40
2018-08-12T09:42:26.083Z,3.40
2018-08-12T09:45:29.723Z,3.60
2018-08-12T09:48:33.388Z,3.53
2018-08-12T09:51:37.208Z,3.47
2018-08-12T09:54:40.788Z,3.07
2018-08-12T09:57:44.744Z,3.43
2018-08-12T10:00:48.563Z,3.23
2018-08-12T10:03:52.894Z,3.20
2018-08-12T10:06:56.577Z,3.20
2018-08-12T10:10:00.348Z,2.93
2018-08-12T10:13:04.462Z,2.70
2018-08-12T10:16:08.345Z,3.10
2018-08-12T10:19:12.129Z,2.60
2018-08-12T10:22:15.990Z,2.83
2018-08-12T10:25:19.933Z,3.20
2018-08-12T10:28:23.647Z,2.80
2018-08-12T10:31:27.589Z,2.60
2018-08-12T10:34:31.398Z,2.60
2018-08-12T10:37:35.245Z,2.97
2018-08-12T10:40:39.146Z,2.97
2018-08-12T10:43:42.780Z,2.83
2018-08-12T10:46:46.501Z,2.50
2018-08-12T10:49:50.239Z,2.73
2018-08-12T10:52:54.024Z,2.40
2018-08-12T10:55:58.002Z,2.23
2018-08-12T10:59:01.817Z,2.20
2018-08-12T11:02:05.639Z,2.13
2018-08-12T11:05:09.430Z,2.90
2018-08-12T11:08:13.315Z,2.40
2018-08-12T11:11:17.116Z,2.50
2018-08-12T11:14:20.872Z,2.40
2018-08-12T11:17:24.784Z,2.73
2018-08-12T11:20:28.580Z,2.47
2018-08-12T11:23:32.433Z,2.40
2018-08-12T11:26:36.554Z,2.30
2018-08-12T11:29:40.290Z,2.57
2018-08-12T11:32:44.340Z,2.50
2018-08-12T11:35:48.055Z,2.70
2018-08-12T11:38:51.723Z,2.37
2018-08-12T11:41:55.604Z,2.40
2018-08-12T11:44:59.308Z,2.73
2018-08-12T11:48:03.181Z,2.40
2018-08-12T11:51:07.080Z,2.50
2018-08-12T11:54:10.887Z,2.70
2018-08-12T11:57:14.695Z,2.57
2018-08-12T12:00:20.521Z,2.53
2018-08-12T12:03:24.278Z,2.97
2018-08-12T12:06:28.083Z,2.60
2018-08-12T12:09:31.804Z,2.60
2018-08-12T12:12:35.421Z,2.20
2018-08-12T12:15:39.140Z,2.23
2018-08-12T12:18:42.793Z,2.37
2018-08-12T12:21:46.595Z,2.23
2018-08-12T12:24:50.481Z,2.30
2018-08-12T12:27:54.205Z,2.53
2018-08-12T12:30:58.113Z,2.47
2018-08-12T12:34:01.915Z,2.47
2018-08-12T12:37:05.638Z,2.23
2018-08-12T12:40:11.262Z,2.17
2018-08-12T12:43:14.910Z,2.40
2018-08-12T12:46:18.619Z,2.20
2018-08-12T12:49:22.449Z,2.50
2018-08-12T12:52:26.235Z,2.30
2018-08-12T12:55:29.998Z,2.13
2018-08-12T12:58:33.798Z,2.60
2018-08-12T13:01:37.578Z,2.10
2018-08-12T13:04:41.275Z,2.20
2018-08-12T13:07:46.055Z,2.40
2018-08-12T13:10:49.748Z,2.10
2018-08-12T13:13:53.461Z,2.33
2018-08-12T13:16:57.306Z,2.20
2018-08-12T13:20:01.043Z,2.40
2018-08-12T13:23:05.036Z,2.27
2018-08-12T13:26:08.971Z,2.20
2018-08-12T13:29:12.761Z,2.00
2018-08-12T13:32:16.477Z,2.30
2018-08-12T13:35:20.248Z,2.10
2018-08-12T13:38:24.054Z,2.33
2018-08-12T13:41:27.708Z,2.20
2018-08-12T13:44:31.423Z,2.17
2018-08-12T13:47:35.222Z,1.80
2018-08-12T13:50:38.977Z,2.00
2018-08-12T13:53:42.733Z,1.90
2018-08-12T13:56:46.491Z,1.93
2018-08-12T13:59:50.172Z,1.87
2018-08-12T14:02:53.999Z,1.60
2018-08-12T14:05:57.626Z,2.00
2018-08-12T14:09:01.368Z,1.83
2018-08-12T14:12:05.201Z,1.77
2018-08-12T14:15:12.482Z,2.10
2018-08-12T14:18:16.237Z,1.90
2018-08-12T14:21:20.095Z,1.90
2018-08-12T14:24:24.038Z,2.00
2018-08-12T14:27:27.736Z,1.80
2018-08-12T14:30:31.552Z,2.10
2018-08-12T14:33:35.188Z,2.13
2018-08-12T14:36:38.872Z,2.20
2018-08-12T14:39:42.704Z,1.90
2018-08-12T14:42:46.415Z,1.90
2018-08-12T14:45:50.185Z,1.90
2018-08-12T14:48:53.984Z,1.70
2018-08-12T14:51:57.636Z,2.00
2018-08-12T14:55:01.321Z,1.70
2018-08-12T14:58:04.979Z,1.73
2018-08-12T15:01:08.821Z,1.90
2018-08-12T15:04:12.495Z,2.03
2018-08-12T15:07:16.199Z,1.70
2018-08-12T15:10:19.962Z,1.90
2018-08-12T15:13:23.673Z,2.00
2018-08-12T15:16:27.533Z,2.00
2018-08-12T15:19:31.209Z,1.90
2018-08-12T15:22:35.264Z,1.80
2018-08-12T15:25:39.102Z,1.90
2018-08-12T15:28:42.834Z,5.00
2018-08-12T15:31:46.469Z,7.90
2018-08-12T15:34:50.342Z,3.97
2018-08-12T15:37:54.156Z,2.60
2018-08-12T15:40:57.945Z,2.00
2018-08-12T15:44:01.743Z,2.13
2018-08-12T15:47:05.493Z,1.83
2018-08-12T15:50:10.214Z,1.93
2018-08-12T15:53:13.942Z,1.70
2018-08-12T15:56:17.833Z,1.80
2018-08-12T15:59:21.921Z,2.00
2018-08-12T16:02:25.582Z,2.00
2018-08-12T16:05:29.327Z,1.83
2018-08-12T16:08:33.191Z,1.90
2018-08-12T16:11:36.865Z,1.80
2018-08-12T16:14:40.536Z,2.07
2018-08-12T16:17:44.307Z,1.80
2018-08-12T16:20:48.077Z,2.13
2018-08-12T16:23:51.976Z,2.03
2018-08-12T16:26:55.773Z,1.90
2018-08-12T16:29:59.647Z,1.70
2018-08-12T16:33:03.418Z,1.90
2018-08-12T16:36:07.221Z,2.03
2018-08-12T16:39:13.027Z,2.30
2018-08-12T16:42:16.947Z,2.03
2018-08-12T16:45:21.051Z,1.80
2018-08-12T16:48:24.789Z,2.07
2018-08-12T16:51:28.627Z,2.00
2018-08-12T16:54:32.703Z,2.20
2018-08-12T16:57:36.521Z,2.10
2018-08-12T17:00:40.277Z,2.27
2018-08-12T17:03:44.022Z,2.30
2018-08-12T17:06:47.825Z,2.10
2018-08-12T17:09:51.452Z,2.17
2018-08-12T17:12:55.333Z,2.10
2018-08-12T17:15:59.024Z,2.17
2018-08-12T17:19:02.699Z,2.03
2018-08-12T17:22:06.535Z,1.87
2018-08-12T17:25:10.412Z,2.30
2018-08-12T17:28:14.131Z,2.00
2018-08-12T17:31:17.914Z,2.20
2018-08-12T17:34:21.895Z,2.10
2018-08-12T17:37:25.583Z,1.93
2018-08-12T17:40:29.403Z,2.23
2018-08-12T17:43:33.134Z,2.17
2018-08-12T17:46:36.930Z,2.20
2018-08-12T17:49:40.749Z,2.00
2018-08-12T17:52:44.478Z,2.70
2018-08-12T17:55:48.185Z,2.50
2018-08-12T17:58:51.914Z,2.40
2018-08-12T18:01:55.963Z,2.30
2018-08-12T18:04:59.677Z,2.37
2018-08-12T18:08:03.377Z,2.37
2018-08-12T18:11:07.210Z,2.40
2018-08-12T18:14:10.865Z,2.50
2018-08-12T18:17:14.648Z,2.10
2018-08-12T18:20:18.353Z,2.47
2018-08-12T18:23:22.361Z,2.60
2018-08-12T18:26:26.099Z,2.90
2018-08-12T18:29:29.864Z,2.30
2018-08-12T18:32:33.823Z,2.50
2018-08-12T18:35:37.718Z,2.57
2018-08-12T18:38:41.519Z,2.60
2018-08-12T18:41:45.311Z,3.00
2018-08-12T18:44:49.105Z,2.63
2018-08-12T18:47:52.849Z,2.63
2018-08-12T18:50:56.874Z,2.90
2018-08-12T18:54:00.768Z,2.90
2018-08-12T18:57:04.534Z,2.90
2018-08-12T19:00:10.224Z,2.73
2018-08-12T19:03:13.911Z,3.20
2018-08-12T19:06:17.611Z,2.60
2018-08-12T19:09:21.279Z,2.57
2018-08-12T19:12:24.947Z,2.60
2018-08-12T19:15:28.699Z,2.97
2018-08-12T19:18:32.861Z,2.73
2018-08-12T19:21:36.937Z,2.90
2018-08-12T19:24:40.750Z,3.00
2018-08-12T19:27:44.530Z,2.60
2018-08-12T19:30:48.329Z,3.27
2018-08-12T19:33:52.253Z,2.73
2018-08-12T19:36:55.969Z,2.73
2018-08-12T19:39:59.769Z,2.97
2018-08-12T19:43:03.779Z,2.70
2018-08-12T19:46:07.625Z,3.10
2018-08-12T19:49:11.412Z,2.97
2018-08-12T19:52:15.164Z,2.80
2018-08-12T19:55:19.153Z,2.70
2018-08-12T19:58:22.941Z,2.90
2018-08-12T20:01:26.666Z,2.60
2018-08-12T20:04:30.583Z,2.53
2018-08-12T20:07:34.333Z,2.93
2018-08-12T20:10:37.995Z,3.03
2018-08-12T20:13:41.780Z,2.73
2018-08-12T20:16:45.470Z,2.80
2018-08-12T20:19:49.227Z,2.60
2018-08-12T20:22:53.083Z,2.73
2018-08-12T20:25:57.052Z,2.80
2018-08-12T20:29:00.785Z,2.80
2018-08-12T20:32:04.599Z,2.70
2018-08-12T20:35:08.509Z,3.00
2018-08-12T20:38:12.227Z,2.73
2018-08-12T20:41:15.975Z,3.00
2018-08-12T20:44:19.726Z,3.23
2018-08-12T20:47:23.370Z,2.50
2018-08-12T20:50:27.219Z,2.80
2018-08-12T20:53:30.943Z,3.07
2018-08-12T20:56:34.636Z,2.77
2018-08-12T20:59:38.445Z,2.70
2018-08-12T21:02:42.770Z,2.93
2018-08-12T21:05:46.559Z,2.83
2018-08-12T21:08:50.354Z,2.50
2018-08-12T21:11:54.197Z,3.10
2018-08-12T21:14:57.926Z,2.80
2018-08-12T21:18:01.649Z,2.70
2018-08-12T21:21:05.507Z,3.10
2018-08-12T21:24:09.355Z,3.07
2018-08-12T21:27:13.139Z,2.77
2018-08-12T21:30:16.991Z,3.20
2018-08-12T21:33:20.996Z,3.47
2018-08-12T21:36:24.626Z,2.80
2018-08-12T21:39:28.354Z,2.80
2018-08-12T21:42:32.877Z,2.80
2018-08-12T21:45:36.537Z,3.00
2018-08-12T21:48:40.234Z,3.00
2018-08-12T21:51:43.937Z,3.00
2018-08-12T21:54:47.800Z,3.00
2018-08-12T21:57:51.436Z,2.93
2018-08-12T22:00:55.699Z,2.90
2018-08-12T22:03:59.391Z,2.77
2018-08-12T22:07:03.127Z,3.00
2018-08-12T22:10:07.461Z,3.00
2018-08-12T22:13:11.334Z,3.13
2018-08-12T22:16:15.140Z,2.90
2018-08-12T22:19:18.936Z,3.37
2018-08-12T22:22:22.749Z,2.97
2018-08-12T22:25:26.597Z,2.90
2018-08-12T22:28:30.277Z,2.60
2018-08-12T22:31:34.077Z,2.93
2018-08-12T22:34:37.786Z,2.63
2018-08-12T22:37:41.440Z,2.67
2018-08-12T22:40:45.180Z,2.93
2018-08-12T22:43:48.924Z,2.50
2018-08-12T22:46:52.566Z,2.77
2018-08-12T22:49:56.213Z,2.60
2018-08-12T22:52:59.785Z,2.70
2018-08-12T22:56:03.521Z,2.70
2018-08-12T22:59:07.287Z,2.87
2018-08-12T23:02:11.082Z,2.80
2018-08-12T23:05:14.915Z,2.80
2018-08-12T23:08:18.602Z,2.90
2018-08-12T23:11:22.246Z,2.27
2018-08-12T23:14:25.914Z,2.70
2018-08-12T23:17:32.205Z,2.80
2018-08-12T23:20:35.825Z,2.70
2018-08-12T23:23:40.541Z,3.03
2018-08-12T23:26:44.240Z,2.50
2018-08-12T23:29:47.912Z,2.80
2018-08-12T23:32:51.567Z,2.80
2018-08-12T23:35:55.257Z,2.70
2018-08-12T23:38:58.893Z,2.70
2018-08-12T23:42:02.558Z,2.80
2018-08-12T23:45:06.221Z,2.80
2018-08-12T23:48:09.863Z,3.17
2018-08-12T23:51:13.700Z,2.80
2018-08-12T23:54:17.344Z,2.87
2018-08-12T23:57:20.981Z,2.90
